Time;durP1;ratioP1;P1;durP2;ratioP2;P2;SDS_P1;SDS_P2;PMS_P1;PMS_P2;Temp;Humidity;BMP_temperature;BMP_pressure;BME280_temperature;BME280_humidity;BME280_pressure;Samples;Min_cycle;Max_cycle;Signal;HPM_P1;HPM_P2
2023/03/21 00:01:14;;;;;;;22.60;14.77;;;8.80;99.90;;;;;;5017486;28;20240;-66
2023/03/21 00:03:43;;;;;;;23.23;14.68;;;8.80;99.90;;;;;;5033726;28;20196;-66
2023/03/21 00:06:12;;;;;;;21.77;15.18;;;8.80;99.90;;;;;;5025282;28;20325;-66
2023/03/21 00:08:39;;;;;;;19.77;14.93;;;8.80;99.90;;;;;;5013848;28;20212;-66
2023/03/21 00:11:08;;;;;;;22.20;15.52;;;8.80;99.90;;;;;;5013332;28;20224;-66
2023/03/21 00:13:37;;;;;;;23.58;15.15;;;8.80;99.90;;;;;;5031761;28;20196;-66
2023/03/21 00:16:05;;;;;;;20.70;15.15;;;8.90;99.90;;;;;;5024744;28;20300;-66
2023/03/21 00:18:35;;;;;;;24.15;14.98;;;8.80;99.90;;;;;;5037424;28;20701;-66
2023/03/21 00:21:04;;;;;;;26.98;15.98;;;8.80;99.90;;;;;;5026242;28;20204;-66
2023/03/21 00:23:32;;;;;;;23.98;15.63;;;8.80;99.90;;;;;;5028627;28;20208;-66
2023/03/21 00:25:59;;;;;;;24.40;15.93;;;8.80;99.90;;;;;;5007063;28;20260;-65
2023/03/21 00:28:29;;;;;;;22.85;16.02;;;8.90;99.90;;;;;;5026464;28;20212;-66
2023/03/21 00:30:58;;;;;;;25.42;15.57;;;8.80;99.90;;;;;;5035992;28;20196;-65
2023/03/21 00:33:25;;;;;;;21.70;15.00;;;8.90;99.90;;;;;;5037126;28;20207;-66
2023/03/21 00:35:54;;;;;;;28.13;16.90;;;8.90;99.90;;;;;;5034085;28;20323;-66
2023/03/21 00:38:21;;;;;;;25.35;16.27;;;8.90;99.90;;;;;;5029358;28;20823;-66
2023/03/21 00:40:48;;;;;;;26.48;16.50;;;8.90;99.90;;;;;;5026952;28;20204;-66
2023/03/21 00:43:16;;;;;;;28.90;16.50;;;8.90;99.90;;;;;;5025953;28;20655;-65
2023/03/21 00:45:43;;;;;;;28.92;16.77;;;8.90;99.90;;;;;;5043117;28;20985;-66
2023/03/21 00:48:10;;;;;;;24.20;16.70;;;8.90;99.90;;;;;;5027117;28;20232;-66
2023/03/21 00:50:37;;;;;;;28.35;17.83;;;8.60;99.90;;;;;;5040667;28;20262;-66
2023/03/21 00:53:07;;;;;;;25.83;16.75;;;8.90;99.90;;;;;;5034271;28;20630;-66
2023/03/21 00:55:34;;;;;;;30.85;17.85;;;8.90;99.90;;;;;;5019236;28;20875;-66
2023/03/21 00:58:00;;;;;;;26.27;16.50;;;8.90;99.90;;;;;;5017227;28;20236;-66
2023/03/21 01:00:27;;;;;;;28.23;17.10;;;8.80;99.90;;;;;;5029613;28;20415;-66
2023/03/21 01:02:57;;;;;;;23.60;16.48;;;8.90;99.90;;;;;;5025233;28;20202;-66
2023/03/21 01:08:08;;;;;;;23.55;16.77;;;8.90;99.90;;;;;;5029771;28;20811;-66
2023/03/21 01:10:38;;;;;;;26.58;14.98;;;8.90;99.90;;;;;;5016290;28;20209;-66
2023/03/21 01:13:05;;;;;;;22.95;16.42;;;8.90;99.90;;;;;;5014139;28;20216;-66
2023/03/21 01:15:32;;;;;;;24.25;16.30;;;8.90;99.90;;;;;;5038414;28;20391;-66
2023/03/21 01:17:58;;;;;;;25.55;16.08;;;8.90;99.90;;;;;;5035689;28;20893;-66
2023/03/21 01:20:26;;;;;;;26.00;15.55;;;8.90;99.90;;;;;;5027734;28;20227;-66
2023/03/21 01:22:52;;;;;;;26.48;15.57;;;8.90;99.90;;;;;;5028113;28;20202;-66
2023/03/21 01:25:21;;;;;;;20.07;14.80;;;8.90;99.90;;;;;;5028535;28;20209;-66
2023/03/21 01:27:48;;;;;;;23.88;15.73;;;8.90;99.90;;;;;;5001157;28;21626;-66
2023/03/21 01:30:15;;;;;;;27.27;16.55;;;8.90;99.90;;;;;;5032283;28;20582;-66
2023/03/21 01:32:42;;;;;;;23.85;15.38;;;8.90;99.90;;;;;;5024530;28;20616;-66
2023/03/21 01:35:09;;;;;;;22.40;15.20;;;8.90;99.90;;;;;;5029119;28;20195;-66
2023/03/21 01:37:36;;;;;;;23.70;15.60;;;8.90;99.90;;;;;;5029883;28;20504;-66
2023/03/21 01:40:04;;;;;;;22.20;15.63;;;8.90;99.90;;;;;;5039401;28;20201;-66
2023/03/21 01:42:32;;;;;;;26.88;16.45;;;8.90;99.90;;;;;;5018268;28;20696;-66
2023/03/21 01:45:02;;;;;;;19.60;14.32;;;8.90;99.90;;;;;;5012372;28;20221;-66
2023/03/21 01:47:28;;;;;;;20.67;15.43;;;8.90;99.90;;;;;;5035632;28;20244;-66
2023/03/21 01:49:57;;;;;;;22.67;15.73;;;8.90;99.90;;;;;;5029267;28;20760;-66
2023/03/21 01:52:27;;;;;;;24.30;14.23;;;8.90;99.90;;;;;;5036402;28;20228;-66
2023/03/21 01:54:56;;;;;;;21.95;15.05;;;8.90;99.90;;;;;;5030855;28;20544;-66
2023/03/21 01:57:31;;;;;;;24.13;15.55;;;8.90;99.90;;;;;;5015638;28;20715;-66
2023/03/21 02:00:11;;;;;;;22.02;15.32;;;8.90;99.90;;;;;;5013553;28;20606;-66
2023/03/21 02:02:53;;;;;;;20.10;15.00;;;8.90;99.90;;;;;;5031114;28;20324;-66
2023/03/21 02:05:27;;;;;;;25.77;15.63;;;8.90;99.90;;;;;;5031096;28;20204;-66
2023/03/21 02:07:53;;;;;;;21.10;15.15;;;8.90;99.90;;;;;;5041969;28;20740;-66
2023/03/21 02:10:21;;;;;;;21.13;15.15;;;8.90;99.90;;;;;;5026866;28;20239;-66
2023/03/21 02:12:48;;;;;;;23.33;14.88;;;8.90;99.90;;;;;;5028791;28;20233;-66
2023/03/21 02:15:16;;;;;;;23.92;15.32;;;8.90;99.90;;;;;;4994187;28;20428;-66
2023/03/21 02:17:49;;;;;;;22.38;14.93;;;9.00;99.90;;;;;;5032101;28;20614;-66
2023/03/21 02:20:57;;;;;;;21.17;14.80;;;9.00;99.90;;;;;;5022926;28;20305;-65
2023/03/21 02:24:00;;;;;;;22.17;15.40;;;9.00;99.90;;;;;;5037580;28;20323;-66
2023/03/21 02:27:00;;;;;;;24.60;15.15;;;8.90;99.90;;;;;;5041657;28;20208;-66
2023/03/21 02:29:54;;;;;;;21.60;15.32;;;9.00;99.90;;;;;;5012263;28;20197;-66
2023/03/21 02:32:34;;;;;;;29.77;17.27;;;9.00;99.90;;;;;;5024085;28;20408;-66
2023/03/21 02:35:18;;;;;;;24.73;16.25;;;9.00;99.90;;;;;;5042731;28;20196;-66
2023/03/21 02:37:49;;;;;;;24.77;15.70;;;9.00;99.90;;;;;;5032260;28;20220;-66
2023/03/21 02:40:23;;;;;;;27.30;16.25;;;9.00;99.90;;;;;;5027220;28;21235;-66
2023/03/21 02:42:58;;;;;;;22.10;15.40;;;9.00;99.90;;;;;;5041876;28;20710;-66
2023/03/21 02:45:30;;;;;;;26.45;16.40;;;9.00;99.90;;;;;;5007764;28;20209;-66
2023/03/21 02:48:03;;;;;;;36.30;17.27;;;9.00;99.90;;;;;;5039888;28;20228;-66
2023/03/21 02:50:36;;;;;;;25.85;15.95;;;9.00;99.90;;;;;;5042496;28;20197;-65
2023/03/21 02:53:07;;;;;;;24.02;16.42;;;9.00;99.90;;;;;;5026316;28;20193;-66
2023/03/21 02:55:36;;;;;;;37.35;17.05;;;9.00;99.90;;;;;;5034822;28;20575;-66
2023/03/21 02:58:04;;;;;;;24.77;16.92;;;9.00;99.90;;;;;;5015521;28;20243;-66
2023/03/21 03:00:33;;;;;;;28.02;16.05;;;9.00;99.90;;;;;;5033099;28;20209;-66
2023/03/21 03:03:00;;;;;;;28.77;17.00;;;9.00;99.90;;;;;;5007884;28;20209;-66
2023/03/21 03:05:30;;;;;;;25.70;16.15;;;9.00;99.90;;;;;;5034423;28;20197;-66
2023/03/21 03:08:11;;;;;;;30.10;17.33;;;9.00;99.90;;;;;;5021097;28;20229;-66
2023/03/21 03:10:47;;;;;;;25.83;16.13;;;9.00;99.90;;;;;;5039872;28;20748;-66
2023/03/21 03:13:31;;;;;;;25.33;16.33;;;9.00;99.90;;;;;;5015663;28;20204;-66
2023/03/21 03:16:10;;;;;;;28.02;16.15;;;9.00;99.90;;;;;;5007762;28;20197;-66
2023/03/21 03:18:46;;;;;;;27.35;16.58;;;9.10;99.90;;;;;;5038249;28;20201;-66
2023/03/21 03:21:19;;;;;;;26.15;15.13;;;9.00;99.90;;;;;;5032411;28;20196;-66
2023/03/21 03:23:52;;;;;;;29.20;17.20;;;8.80;99.90;;;;;;5031120;28;20354;-66
2023/03/21 03:26:23;;;;;;;24.63;15.77;;;9.00;99.90;;;;;;5038453;28;20197;-66
2023/03/21 03:28:54;;;;;;;23.38;14.68;;;9.00;99.90;;;;;;5026341;28;20748;-66
2023/03/21 03:31:24;;;;;;;24.92;15.50;;;9.00;99.90;;;;;;4997909;28;20225;-66
2023/03/21 03:33:54;;;;;;;22.58;15.30;;;9.00;99.90;;;;;;5036039;28;20197;-66
2023/03/21 03:36:24;;;;;;;24.70;16.25;;;9.10;99.90;;;;;;5033889;28;20673;-66
2023/03/21 03:38:53;;;;;;;26.40;16.92;;;9.10;99.90;;;;;;5026351;28;20196;-66
2023/03/21 03:41:25;;;;;;;28.47;15.87;;;9.00;99.90;;;;;;5024481;28;20204;-66
2023/03/21 03:43:55;;;;;;;24.80;15.48;;;9.00;99.90;;;;;;5025762;28;20251;-66
2023/03/21 03:46:28;;;;;;;31.15;15.88;;;9.10;99.90;;;;;;4998309;28;20411;-66
2023/03/21 03:48:58;;;;;;;27.55;16.88;;;9.00;99.90;;;;;;5034022;28;20258;-66
2023/03/21 03:51:29;;;;;;;28.25;15.95;;;9.10;99.90;;;;;;5035137;28;20482;-66
2023/03/21 03:54:01;;;;;;;24.52;16.60;;;9.10;99.90;;;;;;5028564;28;20197;-66
2023/03/21 03:56:28;;;;;;;28.95;16.80;;;9.10;99.90;;;;;;5026463;28;20859;-66
2023/03/21 03:58:57;;;;;;;26.00;16.80;;;9.10;99.90;;;;;;5031942;28;20812;-66
2023/03/21 04:01:25;;;;;;;29.05;16.55;;;9.10;99.90;;;;;;5030065;28;20407;-66
2023/03/21 04:03:52;;;;;;;27.70;16.85;;;9.10;99.90;;;;;;5010698;28;20216;-66
2023/03/21 04:06:20;;;;;;;27.40;16.73;;;9.10;99.90;;;;;;5032599;28;20201;-66
2023/03/21 04:08:48;;;;;;;26.92;17.63;;;9.10;99.90;;;;;;5033343;28;20697;-66
2023/03/21 04:11:16;;;;;;;24.20;16.98;;;9.10;99.90;;;;;;5024589;28;20201;-66
2023/03/21 04:13:43;;;;;;;30.27;16.98;;;9.10;99.90;;;;;;5032620;28;20737;-66
2023/03/21 04:16:11;;;;;;;23.35;16.40;;;9.10;99.90;;;;;;5019853;28;20202;-66
2023/03/21 04:18:39;;;;;;;30.42;17.67;;;9.20;99.90;;;;;;5010844;28;20376;-66
2023/03/21 04:21:09;;;;;;;23.77;16.70;;;9.10;99.90;;;;;;5036117;28;20746;-66
2023/03/21 04:23:37;;;;;;;33.78;18.02;;;9.10;99.90;;;;;;5038240;28;20573;-66
2023/03/21 04:26:04;;;;;;;25.15;16.25;;;9.10;99.90;;;;;;5036054;28;20219;-66
2023/03/21 04:28:34;;;;;;;29.95;17.40;;;9.10;99.90;;;;;;5029291;28;20229;-66
2023/03/21 04:31:02;;;;;;;27.63;16.58;;;9.10;99.90;;;;;;5025403;28;20511;-66
2023/03/21 04:33:28;;;;;;;26.67;17.63;;;9.10;99.90;;;;;;5007378;28;20567;-66
2023/03/21 04:35:57;;;;;;;26.10;16.98;;;9.20;99.90;;;;;;5041299;28;20694;-66
2023/03/21 04:38:29;;;;;;;32.75;17.75;;;9.20;99.90;;;;;;5045178;28;20400;-66
2023/03/21 04:40:56;;;;;;;33.97;18.80;;;9.10;99.90;;;;;;5034316;28;20197;-66
2023/03/21 04:43:23;;;;;;;33.35;17.67;;;9.20;99.90;;;;;;5026226;28;20770;-66
2023/03/21 04:45:52;;;;;;;30.77;17.05;;;9.20;99.90;;;;;;5026277;28;20201;-66
2023/03/21 04:48:19;;;;;;;32.22;17.70;;;9.20;99.90;;;;;;5024225;28;20263;-66
2023/03/21 04:50:46;;;;;;;36.47;18.33;;;9.10;99.90;;;;;;4998016;28;20208;-66
2023/03/21 04:53:13;;;;;;;26.45;17.63;;;9.20;99.90;;;;;;5023564;28;20330;-66
2023/03/21 04:55:40;;;;;;;30.50;18.25;;;9.20;99.90;;;;;;5029483;28;20232;-66
2023/03/21 04:58:06;;;;;;;32.95;18.02;;;9.20;99.90;;;;;;5015319;28;20214;-66
2023/03/21 05:00:36;;;;;;;30.75;18.42;;;9.20;99.90;;;;;;5035387;28;20526;-66
2023/03/21 05:03:07;;;;;;;29.98;18.08;;;9.20;99.90;;;;;;5019333;28;20744;-66
2023/03/21 05:05:34;;;;;;;31.58;18.17;;;9.20;99.90;;;;;;5000850;28;20201;-66
2023/03/21 05:08:01;;;;;;;35.92;19.17;;;9.20;99.90;;;;;;5032191;28;20709;-66
2023/03/21 05:10:28;;;;;;;34.17;19.42;;;9.20;99.90;;;;;;5032828;28;20205;-66
2023/03/21 05:12:55;;;;;;;36.80;19.42;;;9.20;99.90;;;;;;5029076;28;20202;-66
2023/03/21 05:15:22;;;;;;;42.60;20.65;;;9.20;99.90;;;;;;5020415;28;20209;-66
2023/03/21 05:17:48;;;;;;;32.95;18.95;;;9.20;99.90;;;;;;5021206;28;20226;-66
2023/03/21 05:20:17;;;;;;;35.60;19.90;;;9.20;99.90;;;;;;5023326;28;20406;-66
2023/03/21 05:22:45;;;;;;;41.63;20.10;;;9.20;99.90;;;;;;5006285;28;20212;-66
2023/03/21 05:25:12;;;;;;;39.58;20.40;;;9.20;99.90;;;;;;5030969;28;20429;-66
2023/03/21 05:27:44;;;;;;;40.22;20.00;;;9.30;99.90;;;;;;5026235;28;20302;-66
2023/03/21 05:30:13;;;;;;;40.33;20.92;;;9.30;99.90;;;;;;5014050;28;20221;-66
2023/03/21 05:32:40;;;;;;;40.10;20.30;;;9.20;99.90;;;;;;5022111;28;20523;-66
2023/03/21 05:35:07;;;;;;;38.95;19.63;;;9.30;99.90;;;;;;5034215;28;20213;-66
2023/03/21 05:37:37;;;;;;;40.83;20.42;;;9.30;99.90;;;;;;5003635;28;20209;-66
2023/03/21 05:40:05;;;;;;;43.42;21.55;;;9.30;99.90;;;;;;5038198;28;20358;-66
2023/03/21 05:42:33;;;;;;;46.55;20.95;;;9.30;99.90;;;;;;5027999;28;20225;-66
2023/03/21 05:44:59;;;;;;;41.95;20.70;;;9.30;99.90;;;;;;5029840;28;20208;-66
2023/03/21 05:47:26;;;;;;;43.50;21.42;;;9.30;99.90;;;;;;5039152;28;20674;-66
2023/03/21 05:49:53;;;;;;;42.97;21.10;;;9.30;99.90;;;;;;5013071;28;20243;-66
2023/03/21 05:52:20;;;;;;;46.20;20.85;;;9.30;99.90;;;;;;5016018;28;20219;-66
2023/03/21 05:54:48;;;;;;;41.40;20.52;;;9.30;99.90;;;;;;5023357;28;20440;-66
2023/03/21 05:57:17;;;;;;;46.05;21.48;;;9.30;99.90;;;;;;5039754;28;20710;-66
2023/03/21 05:59:44;;;;;;;43.35;21.50;;;9.30;99.90;;;;;;4998744;28;20223;-66
2023/03/21 06:02:11;;;;;;;40.53;20.92;;;9.30;99.90;;;;;;4995660;28;20202;-66
2023/03/21 06:04:38;;;;;;;33.30;19.02;;;9.30;99.90;;;;;;5017525;28;20212;-66
2023/03/21 06:07:05;;;;;;;44.30;20.80;;;9.30;99.90;;;;;;5012469;28;20204;-66
2023/03/21 06:09:32;;;;;;;44.15;20.75;;;9.30;99.90;;;;;;4997555;28;20251;-66
2023/03/21 06:12:00;;;;;;;36.88;18.58;;;9.30;99.90;;;;;;5029584;28;20770;-65
2023/03/21 06:14:27;;;;;;;41.25;19.80;;;9.40;99.90;;;;;;5011279;28;20634;-66
2023/03/21 06:16:54;;;;;;;43.10;21.65;;;9.30;99.90;;;;;;5020874;28;20888;-66
2023/03/21 06:19:21;;;;;;;35.45;20.52;;;9.40;99.90;;;;;;5022363;28;20444;-66
2023/03/21 06:21:48;;;;;;;38.38;19.98;;;9.40;99.90;;;;;;5008350;28;20233;-66
2023/03/21 06:24:16;;;;;;;35.97;20.00;;;9.40;99.90;;;;;;5015256;28;20232;-66
2023/03/21 06:26:43;;;;;;;47.50;21.08;;;9.40;99.90;;;;;;5024183;28;20208;-66
2023/03/21 06:29:11;;;;;;;39.78;20.48;;;9.50;99.90;;;;;;5040091;28;20225;-66
2023/03/21 06:31:38;;;;;;;35.95;19.60;;;9.40;99.90;;;;;;5026524;28;20822;-66
2023/03/21 06:34:05;;;;;;;43.28;20.10;;;9.50;99.90;;;;;;5038586;28;20222;-66
2023/03/21 06:36:32;;;;;;;35.45;19.75;;;9.50;99.90;;;;;;5017433;28;20516;-66
2023/03/21 06:38:59;;;;;;;39.03;19.65;;;9.50;99.90;;;;;;5010331;28;20236;-66
2023/03/21 06:41:26;;;;;;;36.95;18.55;;;9.50;99.90;;;;;;5039016;28;20289;-66
2023/03/21 06:43:52;;;;;;;31.75;18.13;;;9.50;99.90;;;;;;5033813;28;20208;-66
2023/03/21 06:46:21;;;;;;;39.83;18.67;;;9.50;99.90;;;;;;5031391;28;20563;-66
2023/03/21 06:48:47;;;;;;;34.58;18.85;;;9.50;99.90;;;;;;5027014;28;20454;-66
2023/03/21 06:51:15;;;;;;;33.35;18.75;;;9.60;99.90;;;;;;5024377;28;20714;-66
2023/03/21 06:53:41;;;;;;;40.53;19.08;;;9.60;99.90;;;;;;5027021;28;20197;-66
2023/03/21 06:56:09;;;;;;;32.15;18.98;;;9.60;99.90;;;;;;5007903;28;20236;-65
2023/03/21 06:58:37;;;;;;;37.63;19.20;;;9.60;99.90;;;;;;5030413;28;20197;-66
2023/03/21 07:01:05;;;;;;;30.55;17.67;;;9.60;99.90;;;;;;5042314;28;20193;-66
2023/03/21 07:03:34;;;;;;;33.50;17.70;;;9.60;99.90;;;;;;5030396;28;20291;-66
2023/03/21 07:06:05;;;;;;;31.10;17.42;;;9.70;99.90;;;;;;5033099;28;20558;-66
2023/03/21 07:08:32;;;;;;;29.67;17.55;;;9.60;99.90;;;;;;4982097;28;20291;-66
2023/03/21 07:10:59;;;;;;;31.27;17.63;;;9.70;99.90;;;;;;5009448;28;20209;-65
2023/03/21 07:13:26;;;;;;;37.95;18.25;;;9.70;99.90;;;;;;5027307;28;20579;-65
2023/03/21 07:15:53;;;;;;;28.15;17.25;;;9.70;99.90;;;;;;5011480;28;20251;-67
2023/03/21 07:18:20;;;;;;;28.92;17.38;;;9.70;99.90;;;;;;4997354;28;20229;-65
2023/03/21 07:20:50;;;;;;;26.98;17.05;;;9.70;99.90;;;;;;5027444;28;20205;-66
2023/03/21 07:23:17;;;;;;;32.45;17.23;;;9.70;99.90;;;;;;5005586;28;20310;-66
2023/03/21 07:25:45;;;;;;;25.42;16.20;;;9.70;99.90;;;;;;5004759;28;20201;-66
2023/03/21 07:28:12;;;;;;;27.25;16.67;;;9.70;99.90;;;;;;5032188;28;20846;-66
2023/03/21 07:30:38;;;;;;;22.85;15.07;;;9.70;99.90;;;;;;5031587;28;20426;-66
2023/03/21 07:33:06;;;;;;;26.92;16.70;;;9.80;99.90;;;;;;5039136;28;20651;-65
2023/03/21 07:35:32;;;;;;;28.23;14.63;;;9.80;99.90;;;;;;5023591;28;20263;-66
2023/03/21 07:38:00;;;;;;;29.65;16.20;;;9.80;99.90;;;;;;5006676;28;20666;-66
2023/03/21 07:40:27;;;;;;;26.90;15.50;;;9.80;99.90;;;;;;4984367;28;20790;-66
2023/03/21 07:42:54;;;;;;;26.83;14.98;;;9.80;99.90;;;;;;5031913;28;20200;-65
2023/03/21 07:45:22;;;;;;;25.85;15.32;;;9.80;99.90;;;;;;5024818;28;20202;-66
2023/03/21 07:47:49;;;;;;;33.20;16.35;;;9.80;99.90;;;;;;5035510;28;20203;-66
2023/03/21 07:50:16;;;;;;;24.50;16.13;;;9.80;99.90;;;;;;5020994;28;20231;-65
2023/03/21 07:52:43;;;;;;;23.02;14.95;;;9.80;99.90;;;;;;5009523;28;20213;-66
2023/03/21 07:55:11;;;;;;;26.90;15.95;;;9.80;99.90;;;;;;5024920;28;20216;-66
2023/03/21 07:57:38;;;;;;;20.42;14.85;;;9.90;99.90;;;;;;4991567;28;20236;-66
2023/03/21 08:00:06;;;;;;;21.55;15.32;;;9.90;99.90;;;;;;5017283;28;20216;-66
2023/03/21 08:02:33;;;;;;;25.15;14.57;;;9.90;99.90;;;;;;5030830;28;20792;-66
2023/03/21 08:05:00;;;;;;;22.52;14.55;;;9.90;99.90;;;;;;5028124;28;20371;-66
2023/03/21 08:07:27;;;;;;;19.50;14.20;;;9.90;99.90;;;;;;5033475;28;20197;-66
2023/03/21 08:09:53;;;;;;;24.98;13.57;;;9.90;99.90;;;;;;5015825;28;20428;-66
2023/03/21 08:12:22;;;;;;;19.35;13.80;;;10.00;99.90;;;;;;5003814;28;20216;-66
2023/03/21 08:14:48;;;;;;;19.80;13.48;;;10.00;99.90;;;;;;5027376;28;20201;-66
2023/03/21 08:17:16;;;;;;;18.70;12.60;;;10.00;99.90;;;;;;5029459;28;20216;-66
2023/03/21 08:19:42;;;;;;;18.45;12.25;;;9.90;99.90;;;;;;5029245;28;20215;-66
2023/03/21 08:22:09;;;;;;;21.27;12.43;;;9.90;99.90;;;;;;5029442;28;20307;-66
2023/03/21 08:24:36;;;;;;;18.92;12.20;;;9.90;99.90;;;;;;5029725;28;20204;-66
2023/03/21 08:27:03;;;;;;;16.52;12.02;;;9.90;99.90;;;;;;5010108;28;20205;-66
2023/03/21 08:29:31;;;;;;;17.55;13.25;;;9.90;99.90;;;;;;5031612;28;20221;-66
2023/03/21 08:31:58;;;;;;;17.55;11.88;;;10.00;99.90;;;;;;5028437;28;20228;-66
2023/03/21 08:34:25;;;;;;;17.08;11.60;;;10.00;99.90;;;;;;5021794;28;20548;-66
2023/03/21 08:36:52;;;;;;;18.13;12.02;;;10.00;99.90;;;;;;5029717;28;20208;-66
2023/03/21 08:39:20;;;;;;;17.70;11.73;;;10.10;99.90;;;;;;5022871;28;20205;-66
2023/03/21 08:41:47;;;;;;;19.67;12.23;;;10.10;99.90;;;;;;4985978;28;20235;-66
2023/03/21 08:44:15;;;;;;;18.13;12.75;;;10.00;99.90;;;;;;4999702;28;20603;-66
2023/03/21 08:46:44;;;;;;;18.27;12.80;;;10.00;99.90;;;;;;5013863;28;20196;-66
2023/03/21 08:49:11;;;;;;;16.38;11.90;;;10.10;99.90;;;;;;5015485;28;20229;-66
2023/03/21 08:51:40;;;;;;;17.23;11.93;;;10.10;99.90;;;;;;5033503;28;20217;-66
2023/03/21 08:54:06;;;;;;;18.77;11.70;;;10.00;99.90;;;;;;5027465;28;20433;-66
2023/03/21 08:56:33;;;;;;;16.17;11.27;;;10.00;99.90;;;;;;5020350;28;20725;-66
2023/03/21 08:59:01;;;;;;;15.52;10.77;;;10.00;99.90;;;;;;4992278;28;21382;-67
2023/03/21 09:01:28;;;;;;;18.75;10.88;;;10.10;99.90;;;;;;5040421;28;20228;-66
2023/03/21 09:03:56;;;;;;;16.58;10.40;;;10.00;99.90;;;;;;5019615;28;20217;-66
2023/03/21 09:06:23;;;;;;;12.60;9.95;;;10.10;99.90;;;;;;5019019;28;20196;-66
2023/03/21 09:08:51;;;;;;;13.45;9.75;;;10.10;99.90;;;;;;5004965;28;20205;-66
2023/03/21 09:11:18;;;;;;;17.77;10.20;;;10.10;99.90;;;;;;5000837;28;20215;-67
2023/03/21 09:13:45;;;;;;;11.80;9.07;;;10.10;99.90;;;;;;4996081;28;20898;-66
2023/03/21 09:16:11;;;;;;;13.38;9.18;;;10.20;99.90;;;;;;5019718;28;20931;-66
2023/03/21 09:18:45;;;;;;;13.95;9.77;;;10.20;99.90;;;;;;5024245;28;20212;-66
2023/03/21 09:21:14;;;;;;;13.23;9.30;;;10.20;99.90;;;;;;5043337;28;20201;-66
2023/03/21 09:23:43;;;;;;;13.93;9.90;;;10.20;99.90;;;;;;5032369;28;20197;-66
2023/03/21 09:26:11;;;;;;;12.52;9.55;;;10.20;99.90;;;;;;5029380;28;20210;-67
2023/03/21 09:28:38;;;;;;;12.80;9.52;;;10.20;99.90;;;;;;4997509;28;20204;-67
2023/03/21 09:31:05;;;;;;;14.73;8.48;;;10.20;99.90;;;;;;5043016;28;20228;-67
2023/03/21 09:33:34;;;;;;;11.75;8.88;;;10.20;99.90;;;;;;5042945;28;20203;-66
2023/03/21 09:36:01;;;;;;;13.77;10.05;;;10.30;99.90;;;;;;5027021;28;20212;-66
2023/03/21 09:38:36;;;;;;;14.55;10.80;;;10.30;99.90;;;;;;5011082;28;20393;-66
2023/03/21 09:41:17;;;;;;;12.93;9.85;;;10.20;99.90;;;;;;5033001;28;20211;-66
2023/03/21 09:43:55;;;;;;;13.90;9.20;;;10.20;99.90;;;;;;4990434;28;20217;-66
2023/03/21 09:46:31;;;;;;;12.57;9.13;;;10.30;99.90;;;;;;5042647;28;20220;-66
2023/03/21 09:49:03;;;;;;;13.55;9.52;;;10.20;99.90;;;;;;5042950;28;20232;-67
2023/03/21 09:51:35;;;;;;;13.30;9.30;;;10.30;99.90;;;;;;5024577;28;20213;-66
2023/03/21 09:54:11;;;;;;;13.48;10.13;;;10.30;99.90;;;;;;5043490;28;20304;-67
2023/03/21 09:56:41;;;;;;;12.20;8.88;;;10.30;99.90;;;;;;5028596;28;20255;-67
2023/03/21 09:59:10;;;;;;;11.98;8.52;;;10.30;99.90;;;;;;5013897;28;20199;-67
2023/03/21 10:01:44;;;;;;;10.40;8.73;;;10.40;99.90;;;;;;5033605;28;20319;-67
2023/03/21 10:04:14;;;;;;;12.27;8.98;;;10.40;99.90;;;;;;5043611;28;20591;-67
2023/03/21 10:06:44;;;;;;;11.38;7.95;;;10.20;99.90;;;;;;5023904;28;20205;-67
2023/03/21 10:09:21;;;;;;;10.15;8.68;;;10.40;99.90;;;;;;5031461;28;20244;-67
2023/03/21 10:11:51;;;;;;;12.15;8.82;;;10.40;99.90;;;;;;5033338;28;20222;-67
2023/03/21 10:14:21;;;;;;;12.73;9.05;;;10.40;99.90;;;;;;5025927;28;20208;-67
2023/03/21 10:16:52;;;;;;;12.20;9.10;;;10.40;99.90;;;;;;5011854;28;20605;-67
2023/03/21 10:19:20;;;;;;;10.88;8.77;;;10.40;99.90;;;;;;5040751;28;20386;-67
2023/03/21 10:21:48;;;;;;;13.55;9.85;;;10.50;99.90;;;;;;5010597;28;20580;-67
2023/03/21 10:24:20;;;;;;;13.10;9.20;;;10.50;99.90;;;;;;5016039;28;20232;-67
2023/03/21 10:26:49;;;;;;;10.13;7.07;;;10.40;99.90;;;;;;5000747;28;20821;-67
2023/03/21 10:29:21;;;;;;;10.65;7.55;;;10.50;99.90;;;;;;5020665;28;20204;-67
2023/03/21 10:31:49;;;;;;;9.52;6.85;;;10.50;99.90;;;;;;5009996;28;20215;-67
2023/03/21 10:34:19;;;;;;;10.05;7.22;;;10.50;99.90;;;;;;5036239;28;20562;-67
2023/03/21 10:36:46;;;;;;;10.98;8.23;;;10.50;99.90;;;;;;5003703;28;20611;-67
2023/03/21 10:39:24;;;;;;;9.75;7.40;;;10.50;99.90;;;;;;5022658;28;20235;-67
2023/03/21 10:41:51;;;;;;;9.60;6.88;;;10.60;99.90;;;;;;5007855;28;20686;-67
2023/03/21 10:44:20;;;;;;;8.75;6.60;;;10.60;99.90;;;;;;5038998;28;20200;-67
2023/03/21 10:46:53;;;;;;;9.10;6.60;;;10.60;99.90;;;;;;4989574;28;20208;-67
2023/03/21 10:49:20;;;;;;;10.32;6.60;;;10.60;99.90;;;;;;5023547;28;20529;-67
2023/03/21 10:51:49;;;;;;;7.82;6.05;;;10.50;99.90;;;;;;5013664;28;20568;-67
2023/03/21 10:54:20;;;;;;;10.93;6.80;;;10.50;99.90;;;;;;5021373;28;20500;-67
2023/03/21 10:56:55;;;;;;;7.97;5.75;;;10.50;99.90;;;;;;5022289;28;20900;-67
2023/03/21 10:59:23;;;;;;;8.02;6.38;;;10.50;99.90;;;;;;5028115;28;20220;-67
2023/03/21 11:01:54;;;;;;;8.63;6.45;;;10.50;99.90;;;;;;5015555;28;20711;-67
2023/03/21 11:04:23;;;;;;;9.38;6.47;;;10.50;99.90;;;;;;5013876;28;20425;-68
2023/03/21 11:06:53;;;;;;;9.00;6.68;;;10.50;99.90;;;;;;5010341;28;20241;-67
2023/03/21 11:09:23;;;;;;;8.18;7.28;;;10.50;99.90;;;;;;5022222;28;20305;-67
2023/03/21 11:11:53;;;;;;;9.43;6.43;;;10.50;99.90;;;;;;4994489;28;20209;-67
2023/03/21 11:14:33;;;;;;;10.15;6.82;;;10.60;99.90;;;;;;5022676;28;20504;-67
2023/03/21 11:17:00;;;;;;;11.45;5.93;;;10.60;99.90;;;;;;5036602;28;20314;-67
2023/03/21 11:19:31;;;;;;;12.25;7.85;;;10.70;99.90;;;;;;5002323;28;20480;-66
2023/03/21 11:21:59;;;;;;;12.60;8.05;;;10.70;99.90;;;;;;5028991;28;20836;-66
2023/03/21 11:24:30;;;;;;;8.82;6.85;;;10.70;99.90;;;;;;5013296;28;20875;-66
2023/03/21 11:26:58;;;;;;;17.33;12.70;;;10.70;99.90;;;;;;5019164;28;20217;-67
2023/03/21 11:29:34;;;;;;;10.63;6.50;;;10.70;99.90;;;;;;5026706;28;20412;-67
2023/03/21 11:32:08;;;;;;;8.55;6.25;;;10.70;99.90;;;;;;5039633;28;20200;-66
2023/03/21 11:34:43;;;;;;;6.88;5.93;;;10.70;99.90;;;;;;4993368;28;20928;-67
2023/03/21 11:37:18;;;;;;;8.55;6.60;;;10.70;99.90;;;;;;5031371;28;20821;-67
2023/03/21 11:39:46;;;;;;;10.07;7.30;;;10.80;99.90;;;;;;5029811;28;20208;-67
2023/03/21 11:42:28;;;;;;;11.77;7.93;;;10.70;99.90;;;;;;5022905;28;20205;-67
2023/03/21 11:45:02;;;;;;;11.57;7.85;;;10.80;99.90;;;;;;5033034;28;20200;-67
2023/03/21 11:47:30;;;;;;;9.90;8.25;;;10.80;99.90;;;;;;5031374;28;20204;-67
2023/03/21 11:49:57;;;;;;;11.45;7.50;;;10.70;99.90;;;;;;5027947;28;20225;-67
2023/03/21 11:52:36;;;;;;;11.00;6.82;;;10.70;99.90;;;;;;5026703;28;20398;-67
2023/03/21 11:55:19;;;;;;;9.68;6.78;;;10.80;99.90;;;;;;5037949;28;20205;-67
2023/03/21 11:57:56;;;;;;;10.50;7.13;;;10.80;99.90;;;;;;4990730;28;22023;-67
2023/03/21 12:00:26;;;;;;;11.32;7.68;;;10.80;99.90;;;;;;5018088;28;21038;-67
2023/03/21 12:03:20;;;;;;;12.77;8.13;;;10.80;99.90;;;;;;5025527;28;20224;-67
2023/03/21 12:05:53;;;;;;;13.75;8.30;;;10.90;99.90;;;;;;5013143;28;20207;-68
2023/03/21 12:08:30;;;;;;;12.32;8.43;;;10.90;99.90;;;;;;5006153;28;20244;-67
2023/03/21 12:11:08;;;;;;;13.32;7.93;;;10.90;99.90;;;;;;5034585;28;21001;-67
2023/03/21 12:13:43;;;;;;;9.80;6.38;;;10.90;99.90;;;;;;5014413;28;20749;-67
2023/03/21 12:16:24;;;;;;;9.00;7.30;;;10.90;99.90;;;;;;5040902;28;20196;-68
2023/03/21 12:19:04;;;;;;;10.90;7.22;;;10.90;99.90;;;;;;5025717;28;20308;-68
2023/03/21 12:21:38;;;;;;;8.93;6.57;;;10.90;99.90;;;;;;5013076;28;20200;-68
2023/03/21 12:24:12;;;;;;;9.43;5.82;;;10.90;99.90;;;;;;5039727;28;20241;-68
2023/03/21 12:26:45;;;;;;;11.82;6.95;;;10.90;99.90;;;;;;5029434;28;20217;-67
2023/03/21 12:29:29;;;;;;;10.30;6.18;;;10.90;99.90;;;;;;5022752;28;20233;-67
2023/03/21 12:32:06;;;;;;;10.77;7.10;;;10.80;99.90;;;;;;5015064;28;20349;-68
2023/03/21 12:35:09;;;;;;;13.30;7.32;;;10.90;99.90;;;;;;5015008;28;20814;-67
2023/03/21 12:37:48;;;;;;;8.85;6.63;;;10.80;99.90;;;;;;4966484;28;20220;-68
2023/03/21 12:40:25;;;;;;;10.55;7.05;;;10.80;99.90;;;;;;5034343;28;20429;-67
2023/03/21 12:43:19;;;;;;;10.48;7.03;;;10.80;99.90;;;;;;5015269;28;20335;-67
2023/03/21 12:45:50;;;;;;;13.70;7.68;;;10.80;99.90;;;;;;5025273;28;20204;-67
2023/03/21 12:48:22;;;;;;;13.25;7.35;;;10.80;99.90;;;;;;5028984;28;20620;-67
2023/03/21 12:50:52;;;;;;;11.75;7.20;;;10.80;99.90;;;;;;5009654;28;20813;-68
2023/03/21 12:53:29;;;;;;;12.27;8.15;;;10.80;99.90;;;;;;4995885;28;20205;-68